Time;durP1;ratioP1;P1;durP2;ratioP2;P2;SDS_P1;SDS_P2;PMS_P1;PMS_P2;Temp;Humidity;BMP_temperature;BMP_pressure;BME280_temperature;BME280_humidity;BME280_pressure;Samples;Min_cycle;Max_cycle;Signal;HPM_P1;HPM_P2
2022/09/24 00:00:31;;;;;;;20.40;18.30;;;;;;;12.60;100.00;101231.50;5011046;28;20022;-78
2022/09/24 00:02:56;;;;;;;20.23;18.23;;;;;;;12.60;100.00;101234.16;5010456;28;20018;-78
2022/09/24 00:05:22;;;;;;;21.23;18.95;;;;;;;12.54;100.00;101233.66;5012210;28;20037;-78
2022/09/24 00:07:47;;;;;;;21.65;19.48;;;;;;;12.52;100.00;101230.31;5019933;28;20022;-78
2022/09/24 00:10:12;;;;;;;21.50;19.20;;;;;;;12.50;100.00;101232.22;5030013;28;20059;-78
2022/09/24 00:12:38;;;;;;;21.48;19.17;;;;;;;12.53;100.00;101225.88;5031197;28;20044;-78
2022/09/24 00:15:04;;;;;;;21.95;19.58;;;;;;;12.51;100.00;101233.91;5029441;28;20473;-78
2022/09/24 00:17:29;;;;;;;20.92;18.73;;;;;;;12.48;100.00;101228.84;5030756;28;20057;-78
2022/09/24 00:19:54;;;;;;;20.80;18.60;;;;;;;12.49;100.00;101230.53;5031050;28;20049;-78
2022/09/24 00:22:20;;;;;;;21.23;18.88;;;;;;;12.49;100.00;101221.78;5029592;28;20063;-79
2022/09/24 00:27:29;;;;;;;20.83;18.70;;;;;;;12.44;100.00;101213.38;5010706;28;20789;-79
2022/09/24 00:29:54;;;;;;;20.77;18.58;;;;;;;12.41;100.00;101210.97;5009943;28;20112;-79
2022/09/24 00:32:22;;;;;;;20.88;18.73;;;;;;;12.40;100.00;101211.91;5009916;28;20017;-79
2022/09/24 00:34:52;;;;;;;20.80;18.67;;;;;;;12.40;100.00;101202.19;5010731;28;20030;-79
2022/09/24 00:37:21;;;;;;;20.17;17.98;;;;;;;12.40;100.00;101199.53;5026934;28;20458;-79
2022/09/24 00:39:46;;;;;;;20.20;18.10;;;;;;;12.41;100.00;101205.69;5030143;28;20032;-79
2022/09/24 00:42:12;;;;;;;21.75;18.90;;;;;;;12.39;100.00;101204.94;5012324;28;20030;-79
2022/09/24 00:44:43;;;;;;;20.77;18.58;;;;;;;12.43;100.00;101204.63;5009663;28;20105;-79
2022/09/24 00:47:29;;;;;;;23.27;19.55;;;;;;;12.41;100.00;101200.41;5021314;28;20499;-78
2022/09/24 00:50:05;;;;;;;20.45;18.45;;;;;;;12.40;100.00;101199.53;5029589;28;20105;-79
2022/09/24 00:52:31;;;;;;;19.45;17.50;;;;;;;12.42;100.00;101200.31;5030518;28;20028;-79
2022/09/24 00:54:57;;;;;;;20.15;18.05;;;;;;;12.41;100.00;101198.63;5029897;28;20103;-79
2022/09/24 00:57:23;;;;;;;21.77;16.98;;;;;;;12.42;100.00;101195.03;5030330;28;20029;-78
2022/09/24 00:59:48;;;;;;;19.35;17.40;;;;;;;12.42;100.00;101199.47;5015507;28;20036;-79
2022/09/24 01:02:14;;;;;;;18.65;16.40;;;;;;;12.45;100.00;101180.75;5018639;28;20033;-79
2022/09/24 01:04:39;;;;;;;18.92;16.63;;;;;;;12.43;100.00;101186.16;5011052;28;20466;-79
2022/09/24 01:07:04;;;;;;;18.38;16.45;;;;;;;12.43;100.00;101180.88;5029868;28;20138;-79
2022/09/24 01:09:30;;;;;;;18.95;17.05;;;;;;;12.43;100.00;101177.38;5029375;28;20045;-79
2022/09/24 01:12:27;;;;;;;17.05;15.35;;;;;;;12.46;100.00;101183.28;5028557;28;20017;-79
2022/09/24 01:15:14;;;;;;;18.15;16.27;;;;;;;12.44;100.00;101179.91;5005580;28;20029;-79
2022/09/24 01:18:07;;;;;;;19.20;17.17;;;;;;;12.42;100.00;101176.56;5023142;28;20042;-78
2022/09/24 01:20:39;;;;;;;20.13;17.02;;;;;;;12.38;100.00;101167.16;5029115;28;20381;-78
2022/09/24 01:23:34;;;;;;;19.83;17.77;;;;;;;12.40;100.00;101165.25;5028997;28;20025;-78
2022/09/24 01:26:22;;;;;;;18.92;17.02;;;;;;;12.42;100.00;101170.44;5028435;28;20056;-78
2022/09/24 01:29:25;;;;;;;19.65;17.75;;;;;;;12.38;100.00;101159.25;5010840;28;20120;-79
2022/09/24 01:32:04;;;;;;;21.13;18.98;;;;;;;12.35;100.00;101159.47;5014960;28;20045;-79
2022/09/24 01:34:39;;;;;;;20.58;18.42;;;;;;;12.34;100.00;101160.44;5009586;28;20033;-78
2022/09/24 01:37:05;;;;;;;21.27;17.58;;;;;;;12.33;100.00;101148.19;5009908;28;20251;-79
2022/09/24 01:39:33;;;;;;;20.33;17.70;;;;;;;12.31;100.00;101158.03;5008842;28;20482;-79
2022/09/24 01:41:59;;;;;;;19.80;17.70;;;;;;;12.32;100.00;101149.16;4991938;28;20022;-79
2022/09/24 01:44:25;;;;;;;19.08;17.27;;;;;;;12.31;100.00;101141.34;4991786;28;20116;-79
2022/09/24 01:46:51;;;;;;;19.65;17.65;;;;;;;12.31;100.00;101146.63;5016631;28;20167;-79
2022/09/24 01:49:16;;;;;;;19.75;17.65;;;;;;;12.29;100.00;101146.75;5009020;28;20037;-80
2022/09/24 01:51:50;;;;;;;19.52;17.55;;;;;;;12.29;100.00;101144.13;5009525;28;20046;-79
2022/09/24 01:54:24;;;;;;;19.50;17.52;;;;;;;12.28;100.00;101147.72;5008731;28;20050;-79
2022/09/24 01:57:13;;;;;;;20.40;18.15;;;;;;;12.31;100.00;101142.19;5023541;28;20025;-79
2022/09/24 01:59:49;;;;;;;21.50;18.33;;;;;;;12.28;100.00;101144.22;5028882;28;20435;-79
2022/09/24 02:02:27;;;;;;;19.67;17.67;;;;;;;12.24;100.00;101143.63;5028105;28;20045;-79
2022/09/24 02:05:01;;;;;;;20.83;18.83;;;;;;;12.27;100.00;101140.75;5021432;28;20033;-79
2022/09/24 02:07:58;;;;;;;20.88;18.77;;;;;;;12.28;100.00;101136.31;5008048;28;20037;-79
2022/09/24 02:10:23;;;;;;;21.88;18.40;;;;;;;12.24;100.00;101133.06;5009659;28;20352;-79
2022/09/24 02:12:55;;;;;;;20.60;18.50;;;;;;;12.23;100.00;101131.41;5009809;28;20014;-79
2022/09/24 02:15:38;;;;;;;20.88;18.70;;;;;;;12.28;100.00;101138.97;5008745;28;20050;-78
2022/09/24 02:18:10;;;;;;;21.02;18.83;;;;;;;12.24;100.00;101133.06;5012979;28;20026;-79
2022/09/24 02:20:38;;;;;;;20.63;18.40;;;;;;;12.23;100.00;101128.75;5018903;28;20104;-79
2022/09/24 02:23:06;;;;;;;22.25;19.85;;;;;;;12.25;100.00;101132.13;5011339;28;20115;-79
2022/09/24 02:25:46;;;;;;;21.27;18.98;;;;;;;12.22;100.00;101129.72;5016382;28;20026;-78
2022/09/24 02:28:11;;;;;;;22.40;20.05;;;;;;;12.21;100.00;101128.03;5031175;28;20049;-79
2022/09/24 02:30:42;;;;;;;22.40;19.70;;;;;;;12.20;100.00;101124.56;5031495;28;20083;-79
2022/09/24 02:35:58;;;;;;;22.08;19.75;;;;;;;12.25;100.00;101116.28;5031838;28;20073;-79
2022/09/24 02:38:23;;;;;;;22.48;20.08;;;;;;;12.25;100.00;101116.28;5014662;28;20038;-79
2022/09/24 02:40:50;;;;;;;22.45;20.13;;;;;;;12.22;100.00;101117.38;5014206;28;20117;-78
2022/09/24 02:43:15;;;;;;;22.67;20.27;;;;;;;12.20;100.00;101116.66;5030320;28;20381;-79
2022/09/24 02:45:40;;;;;;;26.42;21.75;;;;;;;12.20;100.00;101118.44;5035442;28;20393;-79
2022/09/24 02:48:06;;;;;;;23.83;21.27;;;;;;;12.22;100.00;101116.53;5034764;28;20036;-78
2022/09/24 02:50:32;;;;;;;24.23;21.73;;;;;;;12.22;100.00;101111.25;5032859;28;20067;-78
2022/09/24 02:52:57;;;;;;;24.85;22.25;;;;;;;12.20;100.00;101110.53;5035460;28;20026;-79
2022/09/24 02:55:23;;;;;;;24.85;22.10;;;;;;;12.21;100.00;101113.06;5022382;28;20084;-79
2022/09/24 02:57:48;;;;;;;24.98;22.48;;;;;;;12.23;100.00;101110.28;5033398;28;20048;-79
2022/09/24 03:00:14;;;;;;;25.08;22.45;;;;;;;12.18;100.00;101105.38;5033647;28;20357;-79
2022/09/24 03:02:39;;;;;;;26.10;23.27;;;;;;;12.19;100.00;101108.84;5032084;28;20095;-80
2022/09/24 03:05:05;;;;;;;26.63;23.83;;;;;;;12.19;100.00;101111.50;5012784;28;20389;-80
2022/09/24 03:07:30;;;;;;;28.17;24.52;;;;;;;12.19;100.00;101106.22;5030957;28;20489;-80
2022/09/24 03:09:58;;;;;;;27.83;24.83;;;;;;;12.20;100.00;101115.81;5028320;28;20444;-80
2022/09/24 03:12:24;;;;;;;28.30;25.35;;;;;;;12.20;100.00;101105.25;5010089;28;20041;-80
2022/09/24 03:14:49;;;;;;;32.38;27.20;;;;;;;12.20;100.00;101099.97;5011230;28;20018;-80
2022/09/24 03:17:14;;;;;;;31.13;27.80;;;;;;;12.21;100.00;101104.28;5010463;28;20580;-80
2022/09/24 03:19:40;;;;;;;33.22;28.55;;;;;;;12.22;100.00;101100.69;5014995;28;20026;-80
2022/09/24 03:22:06;;;;;;;34.28;29.48;;;;;;;12.21;100.00;101105.13;5012890;28;20026;-80
2022/09/24 03:24:31;;;;;;;34.03;30.35;;;;;;;12.21;100.00;101099.03;5030284;28;20053;-80
2022/09/24 03:26:57;;;;;;;35.80;30.85;;;;;;;12.21;100.00;101099.84;5010481;28;20397;-80
2022/09/24 03:30:58;;;;;;;35.78;31.83;;;;;;;12.22;100.00;101096.25;5010916;28;20064;-80
2022/09/24 03:32:07;;;;;;;39.50;32.30;;;;;;;12.21;100.00;101089.31;5009912;28;20459;-80
2022/09/24 03:34:32;;;;;;;37.42;33.22;;;;;;;12.22;100.00;101095.44;4993552;28;20053;-80
2022/09/24 03:36:58;;;;;;;37.60;33.53;;;;;;;12.24;100.00;101094.34;5011267;28;20038;-80
2022/09/24 03:39:23;;;;;;;41.60;35.75;;;;;;;12.22;100.00;101093.63;5010500;28;20117;-80
2022/09/24 03:41:48;;;;;;;40.13;33.85;;;;;;;12.24;100.00;101094.34;5011221;28;20475;-80
2022/09/24 03:44:14;;;;;;;38.78;34.03;;;;;;;12.25;100.00;101082.00;5014964;28;20456;-80
2022/09/24 03:46:39;;;;;;;41.88;34.97;;;;;;;12.23;100.00;101089.19;5017817;28;20017;-80
2022/09/24 03:49:04;;;;;;;41.63;35.47;;;;;;;12.23;100.00;101087.38;5030681;28;20029;-80
2022/09/24 03:51:30;;;;;;;39.60;35.08;;;;;;;12.24;100.00;101073.25;5030491;28;20063;-80
2022/09/24 03:53:55;;;;;;;42.47;34.45;;;;;;;12.23;100.00;101076.84;5029791;28;20036;-80
2022/09/24 03:56:21;;;;;;;40.80;34.63;;;;;;;12.23;100.00;101083.91;5029929;28;20026;-80
2022/09/24 03:58:46;;;;;;;40.00;34.80;;;;;;;12.20;100.00;101071.81;5014344;28;20128;-80
2022/09/24 04:01:12;;;;;;;40.50;34.58;;;;;;;12.20;100.00;101068.31;5014646;28;20026;-79
2022/09/24 04:03:38;;;;;;;40.40;35.00;;;;;;;12.21;100.00;101070.00;5010823;28;20046;-79
2022/09/24 04:06:05;;;;;;;40.15;34.47;;;;;;;12.19;100.00;101071.91;5010309;28;20064;-79
2022/09/24 04:08:31;;;;;;;38.83;34.33;;;;;;;12.21;100.00;101077.91;5009519;28;20026;-79
2022/09/24 04:10:56;;;;;;;43.65;35.30;;;;;;;12.20;100.00;101071.81;5010195;28;20087;-79
2022/09/24 04:13:22;;;;;;;39.05;34.40;;;;;;;12.22;100.00;101066.41;5009976;28;20121;-79
2022/09/24 04:15:50;;;;;;;37.58;33.22;;;;;;;12.20;100.00;101065.69;5009542;28;20038;-79
2022/09/24 04:18:16;;;;;;;39.15;33.90;;;;;;;12.22;100.00;101061.97;5014723;28;20128;-80
2022/09/24 04:20:42;;;;;;;39.38;33.80;;;;;;;12.21;100.00;101062.09;5021308;28;20505;-79
2022/09/24 04:23:09;;;;;;;38.22;32.67;;;;;;;12.22;100.00;101058.50;5028613;28;20029;-79
2022/09/24 04:25:35;;;;;;;38.92;32.85;;;;;;;12.21;100.00;101056.81;5029445;28;20052;-80
2022/09/24 04:28:05;;;;;;;40.85;32.25;;;;;;;12.23;100.00;101060.16;5028979;28;20082;-79
2022/09/24 04:30:32;;;;;;;37.13;31.17;;;;;;;12.21;100.00;101052.38;5029561;28;20367;-81
2022/09/24 04:32:59;;;;;;;38.58;31.95;;;;;;;12.21;100.00;101062.09;5029496;28;20022;-79
2022/09/24 04:35:26;;;;;;;36.47;32.30;;;;;;;12.19;100.00;101059.56;5026938;28;20136;-79
2022/09/24 04:37:51;;;;;;;38.67;31.90;;;;;;;12.21;100.00;101062.94;5016434;28;20053;-80
2022/09/24 04:40:17;;;;;;;37.67;32.22;;;;;;;12.22;100.00;101059.31;5028916;28;20052;-79
2022/09/24 04:42:45;;;;;;;37.35;31.30;;;;;;;12.23;100.00;101054.91;5029225;28;20464;-80
2022/09/24 04:45:11;;;;;;;41.13;32.60;;;;;;;12.21;100.00;101059.44;5029430;28;20028;-79
2022/09/24 04:47:39;;;;;;;39.63;32.28;;;;;;;12.18;100.00;101057.88;5029761;28;20035;-79
2022/09/24 04:50:07;;;;;;;38.30;32.05;;;;;;;12.18;100.00;101060.53;5029020;28;20091;-79
2022/09/24 04:52:32;;;;;;;35.85;30.40;;;;;;;12.19;100.00;101053.44;5020766;28;20117;-80
2022/09/24 04:54:59;;;;;;;36.78;30.02;;;;;;;12.21;100.00;101059.44;5009330;28;20108;-79
2022/09/24 04:57:25;;;;;;;36.38;31.02;;;;;;;12.24;100.00;101051.28;5015248;28;20075;-80
2022/09/24 04:59:50;;;;;;;35.80;30.63;;;;;;;12.23;100.00;101052.25;5029663;28;20025;-79
2022/09/24 05:02:16;;;;;;;34.97;30.58;;;;;;;12.21;100.00;101052.38;5028814;28;20103;-80
2022/09/24 05:04:42;;;;;;;36.85;30.83;;;;;;;12.20;100.00;101050.69;4991711;28;20030;-80
2022/09/24 05:07:08;;;;;;;33.97;29.60;;;;;;;12.20;100.00;101060.41;5009559;28;20029;-80
2022/09/24 05:09:34;;;;;;;34.75;29.05;;;;;;;12.23;100.00;101049.63;5014038;28;20029;-80
2022/09/24 05:12:00;;;;;;;34.50;29.15;;;;;;;12.21;100.00;101060.28;5008693;28;20021;-80
2022/09/24 05:14:25;;;;;;;31.63;28.23;;;;;;;12.21;100.00;101062.09;5021387;28;20057;-80
2022/09/24 05:16:51;;;;;;;32.05;28.10;;;;;;;12.21;100.00;101056.81;5028999;28;20584;-80
2022/09/24 05:19:16;;;;;;;32.63;28.23;;;;;;;12.20;100.00;101057.78;5027618;28;20520;-80
2022/09/24 05:21:42;;;;;;;32.00;27.25;;;;;;;12.21;100.00;101062.09;5028943;28;20032;-80
2022/09/24 05:24:07;;;;;;;28.67;25.48;;;;;;;12.21;100.00;101060.28;5022902;28;20362;-80
2022/09/24 05:29:17;;;;;;;28.60;25.02;;;;;;;12.20;100.00;101063.88;5009013;28;20037;-79
2022/09/24 05:31:42;;;;;;;26.42;23.55;;;;;;;12.18;100.00;101062.31;5008521;28;20106;-80
2022/09/24 05:34:08;;;;;;;27.50;24.33;;;;;;;12.19;100.00;101059.56;5008886;28;20056;-79
2022/09/24 05:36:36;;;;;;;27.48;24.48;;;;;;;12.19;100.00;101064.84;5008853;28;20037;-80
2022/09/24 05:39:02;;;;;;;28.33;24.05;;;;;;;12.18;100.00;101071.09;5009092;28;20461;-80
2022/09/24 05:41:27;;;;;;;26.52;22.98;;;;;;;12.18;100.00;101064.97;5013843;28;20030;-79
2022/09/24 05:43:53;;;;;;;26.65;23.17;;;;;;;12.16;100.00;101059.81;5021285;28;20497;-80
2022/09/24 05:46:18;;;;;;;26.63;22.83;;;;;;;12.18;100.00;101062.31;5009649;28;20473;-79
2022/09/24 05:48:44;;;;;;;25.05;22.30;;;;;;;12.18;100.00;101068.44;5028710;28;20028;-80
2022/09/24 05:51:12;;;;;;;25.65;22.92;;;;;;;12.16;100.00;101080.06;5028793;28;20381;-79
2022/09/24 05:53:38;;;;;;;25.92;22.65;;;;;;;12.18;100.00;101070.25;5031457;28;20021;-79
2022/09/24 05:56:03;;;;;;;26.25;23.45;;;;;;;12.17;100.00;101071.19;5032634;28;20104;-79
2022/09/24 05:58:29;;;;;;;24.75;22.08;;;;;;;12.16;100.00;101075.63;5028996;28;20430;-79
2022/09/24 06:00:54;;;;;;;28.13;23.55;;;;;;;12.17;100.00;101073.84;5014232;28;20108;-79
2022/09/24 06:03:19;;;;;;;27.63;23.67;;;;;;;12.17;100.00;101079.13;5031620;28;20037;-79
2022/09/24 06:05:47;;;;;;;25.33;22.45;;;;;;;12.14;100.00;101077.56;5030419;28;20076;-79
2022/09/24 06:08:14;;;;;;;27.05;23.40;;;;;;;12.17;100.00;101081.75;5029910;28;20021;-79
2022/09/24 06:10:44;;;;;;;28.55;23.65;;;;;;;12.15;100.00;101083.66;5032532;28;20064;-79
2022/09/24 06:13:10;;;;;;;26.25;22.70;;;;;;;12.15;100.00;101089.78;5032293;28;20021;-79
2022/09/24 06:15:37;;;;;;;27.02;23.25;;;;;;;12.13;100.00;101081.16;5026855;28;20050;-79
2022/09/24 06:18:03;;;;;;;26.48;23.20;;;;;;;12.14;100.00;101092.53;5012937;28;20446;-78
2022/09/24 06:20:29;;;;;;;26.80;22.70;;;;;;;12.17;100.00;101092.31;5005773;28;20056;-79
2022/09/24 06:22:56;;;;;;;26.02;23.33;;;;;;;12.19;100.00;101093.03;5032009;28;20021;-80
2022/09/24 06:25:23;;;;;;;26.77;23.30;;;;;;;12.18;100.00;101091.34;5030402;28;20084;-79
2022/09/24 06:28:00;;;;;;;27.45;23.48;;;;;;;12.19;100.00;101090.38;5031823;28;20013;-79
2022/09/24 06:30:30;;;;;;;24.70;22.00;;;;;;;12.19;100.00;101096.50;5031683;28;20051;-80
2022/09/24 06:33:04;;;;;;;26.45;22.75;;;;;;;12.20;100.00;101095.53;5031630;28;20021;-80
2022/09/24 06:35:30;;;;;;;28.63;22.42;;;;;;;12.22;100.00;101095.44;5031463;28;20345;-79
2022/09/24 06:37:56;;;;;;;26.50;22.75;;;;;;;12.23;100.00;101092.66;5031615;28;20030;-82
2022/09/24 06:40:24;;;;;;;29.05;22.98;;;;;;;12.22;100.00;101095.44;5031599;28;20108;-80
2022/09/24 06:42:51;;;;;;;25.40;22.52;;;;;;;12.19;100.00;101093.03;5028649;28;20329;-80
2022/09/24 06:45:16;;;;;;;28.95;22.10;;;;;;;12.22;100.00;101105.97;5012708;28;20035;-80
2022/09/24 06:47:42;;;;;;;26.45;22.10;;;;;;;12.25;100.00;101108.38;5030041;28;20021;-80
2022/09/24 06:50:07;;;;;;;27.38;22.40;;;;;;;12.22;100.00;101095.44;5031312;28;20025;-79
2022/09/24 06:52:33;;;;;;;24.73;22.13;;;;;;;12.20;100.00;101102.63;5031445;28;20018;-79
2022/09/24 06:54:59;;;;;;;25.65;22.30;;;;;;;12.24;100.00;101104.06;5010231;28;20041;-79
2022/09/24 06:57:24;;;;;;;25.92;22.35;;;;;;;12.24;100.00;101104.06;5019381;28;20108;-79
2022/09/24 06:59:50;;;;;;;26.27;22.35;;;;;;;12.23;100.00;101105.84;5031952;28;20029;-79
2022/09/24 07:02:16;;;;;;;27.38;22.50;;;;;;;12.26;100.00;101107.41;5030473;28;20041;-79
2022/09/24 07:04:41;;;;;;;26.05;23.02;;;;;;;12.24;100.00;101111.97;5013204;28;20601;-79
2022/09/24 07:09:51;;;;;;;30.10;23.33;;;;;;;12.26;100.00;101111.84;5026736;28;20124;-79
2022/09/24 07:12:16;;;;;;;25.83;22.02;;;;;;;12.29;100.00;101115.09;5020542;28;20167;-79
2022/09/24 07:14:41;;;;;;;25.67;22.88;;;;;;;12.31;100.00;101109.69;5031172;28;20033;-80
2022/09/24 07:17:07;;;;;;;27.15;23.67;;;;;;;12.31;100.00;101112.34;5030417;28;20045;-80
2022/09/24 07:19:32;;;;;;;29.95;22.98;;;;;;;12.31;100.00;101118.47;5023028;28;20030;-80
2022/09/24 07:21:57;;;;;;;26.15;23.33;;;;;;;12.32;100.00;101112.22;5015049;28;20024;-80
2022/09/24 07:24:23;;;;;;;26.52;23.38;;;;;;;12.30;100.00;101113.28;5018309;28;20029;-79
2022/09/24 07:26:48;;;;;;;26.00;22.45;;;;;;;12.34;100.00;101114.75;5031448;28;20447;-80
2022/09/24 07:29:14;;;;;;;25.63;22.65;;;;;;;12.32;100.00;101106.09;5030183;28;20026;-79
2022/09/24 07:31:39;;;;;;;26.70;23.15;;;;;;;12.33;100.00;101113.91;5030801;28;20481;-79
2022/09/24 07:34:08;;;;;;;26.50;23.50;;;;;;;12.33;100.00;101119.19;5031173;28;20367;-80
2022/09/24 07:36:36;;;;;;;28.98;23.60;;;;;;;12.32;100.00;101124.56;5031102;28;20036;-80
2022/09/24 07:39:01;;;;;;;26.70;23.40;;;;;;;12.35;100.00;101122.53;5030556;28;20025;-80
2022/09/24 07:41:28;;;;;;;28.02;23.27;;;;;;;12.38;100.00;101127.56;5030817;28;20029;-80
2022/09/24 07:43:54;;;;;;;28.88;23.88;;;;;;;12.39;100.00;101129.25;5031399;28;20127;-80
2022/09/24 07:46:20;;;;;;;29.52;24.42;;;;;;;12.39;100.00;101129.25;5029940;28;20359;-80
2022/09/24 07:48:48;;;;;;;30.88;24.90;;;;;;;12.43;100.00;101129.88;5031006;28;20070;-80
2022/09/24 07:51:15;;;;;;;27.77;24.70;;;;;;;12.41;100.00;101137.94;5030620;28;20025;-79
2022/09/24 07:53:40;;;;;;;28.90;25.15;;;;;;;12.44;100.00;101135.03;5026648;28;20041;-79
2022/09/24 07:56:06;;;;;;;28.58;24.58;;;;;;;12.45;100.00;101131.44;5022397;28;20021;-79
2022/09/24 07:58:31;;;;;;;30.67;25.23;;;;;;;12.43;100.00;101132.53;5027278;28;20036;-79
2022/09/24 08:00:58;;;;;;;28.48;24.98;;;;;;;12.47;100.00;101136.59;5016493;28;20037;-79
2022/09/24 08:03:23;;;;;;;28.83;24.52;;;;;;;12.45;100.00;101142.00;5027391;28;20875;-80
2022/09/24 08:05:49;;;;;;;29.33;25.60;;;;;;;12.48;100.00;101141.75;5022138;28;20057;-80
2022/09/24 08:08:14;;;;;;;29.77;25.50;;;;;;;12.47;100.00;101140.09;5026508;28;20029;-79
2022/09/24 08:10:41;;;;;;;28.52;24.75;;;;;;;12.51;100.00;101141.53;5029994;28;20497;-80
2022/09/24 08:13:07;;;;;;;29.08;25.45;;;;;;;12.57;100.00;101142.84;5010718;28;20419;-81
2022/09/24 08:15:33;;;;;;;32.50;26.13;;;;;;;12.62;100.00;101145.13;5024043;28;20113;-81
2022/09/24 08:18:02;;;;;;;30.05;26.73;;;;;;;12.61;100.00;101151.38;5022171;28;20112;-81
2022/09/24 08:20:28;;;;;;;32.38;26.10;;;;;;;12.60;100.00;101152.31;5025597;28;20033;-81
2022/09/24 08:22:53;;;;;;;31.98;26.50;;;;;;;12.62;100.00;101156.53;5004032;28;20098;-81
2022/09/24 08:25:19;;;;;;;30.65;26.98;;;;;;;12.67;100.00;101158.81;5026716;28;20548;-80
2022/09/24 08:27:44;;;;;;;31.75;26.50;;;;;;;12.70;100.00;101155.91;5020107;28;20152;-80
2022/09/24 08:30:10;;;;;;;30.85;25.63;;;;;;;12.65;100.00;101152.81;5027862;28;20048;-79
2022/09/24 08:32:36;;;;;;;29.58;25.02;;;;;;;12.66;100.00;101162.41;5008461;28;20037;-78
2022/09/24 08:35:01;;;;;;;28.95;25.85;;;;;;;12.68;100.00;101165.75;5026516;28;20051;-78
2022/09/24 08:37:27;;;;;;;28.60;25.08;;;;;;;12.70;100.00;101163.84;5030137;28;20028;-78
2022/09/24 08:39:53;;;;;;;28.05;25.13;;;;;;;12.71;100.00;101161.09;5012765;28;20025;-79
2022/09/24 08:42:18;;;;;;;27.88;24.67;;;;;;;12.76;100.00;101169.47;5028811;28;20057;-79
2022/09/24 08:47:35;;;;;;;28.25;24.35;;;;;;;12.78;100.00;101172.84;5030380;28;20040;-79
2022/09/24 08:50:23;;;;;;;27.70;23.88;;;;;;;12.84;100.00;101171.56;5028771;28;20021;-80
2022/09/24 08:53:00;;;;;;;29.30;25.77;;;;;;;12.84;100.00;101171.56;5027253;28;20492;-79
2022/09/24 08:55:36;;;;;;;27.90;24.20;;;;;;;12.84;100.00;101177.66;5028794;28;20048;-80
2022/09/24 08:58:16;;;;;;;26.98;24.15;;;;;;;12.85;100.00;101178.50;5011982;28;20029;-80
2022/09/24 09:01:06;;;;;;;26.98;24.08;;;;;;;12.86;100.00;101180.19;5030348;28;20063;-81
2022/09/24 09:03:35;;;;;;;28.05;23.52;;;;;;;12.89;100.00;101182.59;5028723;28;20057;-81
2022/09/24 09:06:04;;;;;;;26.98;23.95;;;;;;;12.92;100.00;101179.72;5009959;28;20026;-80
2022/09/24 09:08:44;;;;;;;28.58;24.25;;;;;;;12.91;100.00;101179.81;5017467;28;20849;-81
2022/09/24 09:11:14;;;;;;;27.75;24.63;;;;;;;12.92;100.00;101179.72;5028094;28;20029;-81
2022/09/24 09:13:45;;;;;;;31.83;24.98;;;;;;;12.86;100.00;101182.84;5029180;28;20028;-81
2022/09/24 09:16:22;;;;;;;28.77;25.55;;;;;;;12.94;100.00;101185.72;5028189;28;20041;-81
2022/09/24 09:18:52;;;;;;;30.77;27.38;;;;;;;12.95;100.00;101184.75;5029215;28;20029;-81
2022/09/24 09:21:36;;;;;;;31.02;26.67;;;;;;;12.98;100.00;101184.50;5027618;28;20025;-80
2022/09/24 09:24:03;;;;;;;31.77;26.52;;;;;;;12.96;100.00;101186.44;5012772;28;20029;-80
2022/09/24 09:26:30;;;;;;;30.75;26.55;;;;;;;13.03;100.00;101192.91;4994897;28;20029;-80
2022/09/24 09:29:00;;;;;;;33.60;27.17;;;;;;;13.06;100.00;101189.19;5035076;28;20454;-81
2022/09/24 09:31:50;;;;;;;31.65;26.67;;;;;;;13.10;100.00;101188.81;5035159;28;20029;-80
2022/09/24 09:34:30;;;;;;;29.98;25.50;;;;;;;13.09;100.00;101189.78;5029061;28;20048;-80
2022/09/24 09:37:26;;;;;;;28.30;25.17;;;;;;;13.07;100.00;101194.34;5029220;28;20421;-80
2022/09/24 09:40:10;;;;;;;29.27;24.95;;;;;;;13.12;100.00;101186.88;5029618;28;20025;-79
2022/09/24 09:42:39;;;;;;;29.13;25.92;;;;;;;13.12;100.00;101184.25;5029219;28;20112;-80
2022/09/24 09:45:28;;;;;;;33.72;27.13;;;;;;;13.16;100.00;101183.03;5009888;28;20367;-80
2022/09/24 09:47:56;;;;;;;32.88;26.08;;;;;;;13.15;100.00;101184.00;5029151;28;20045;-79
2022/09/24 09:50:36;;;;;;;28.00;24.98;;;;;;;13.19;100.00;101176.69;5028842;28;20034;-80
2022/09/24 09:53:04;;;;;;;28.15;25.20;;;;;;;13.21;100.00;101179.22;5028389;28;20043;-80
2022/09/24 09:55:35;;;;;;;28.42;25.15;;;;;;;13.25;100.00;101178.88;5029352;28;20021;-79
2022/09/24 09:58:21;;;;;;;30.05;25.42;;;;;;;13.32;100.00;101176.59;5029184;28;20033;-79
2022/09/24 10:00:48;;;;;;;31.73;25.42;;;;;;;13.27;100.00;101178.75;5029256;28;20463;-79
2022/09/24 10:03:25;;;;;;;27.70;24.55;;;;;;;13.29;100.00;101182.94;5028536;28;20346;-79
2022/09/24 10:05:58;;;;;;;31.55;24.17;;;;;;;13.24;100.00;101179.84;5028861;28;20038;-79
2022/09/24 10:08:24;;;;;;;30.65;25.35;;;;;;;13.31;100.00;101180.19;5029312;28;20696;-79
2022/09/24 10:10:57;;;;;;;27.40;24.45;;;;;;;13.35;100.00;101179.81;5029109;28;20132;-79
2022/09/24 10:13:25;;;;;;;29.85;24.23;;;;;;;13.35;100.00;101182.47;5014014;28;20414;-79
2022/09/24 10:15:53;;;;;;;26.67;23.83;;;;;;;13.32;100.00;101176.59;5029117;28;20041;-79
2022/09/24 10:18:32;;;;;;;27.23;23.95;;;;;;;13.41;100.00;101186.41;5027828;28;20032;-79
2022/09/24 10:21:02;;;;;;;27.48;23.92;;;;;;;13.47;100.00;101185.91;5026232;28;20377;-79
2022/09/24 10:23:48;;;;;;;26.55;23.58;;;;;;;13.45;100.00;101178.09;5022769;28;20524;-79
2022/09/24 10:26:14;;;;;;;25.55;22.85;;;;;;;13.47;100.00;101181.47;5020303;28;20104;-79
2022/09/24 10:31:34;;;;;;;27.25;24.30;;;;;;;13.58;100.00;101167.38;5020207;28;20120;-78
2022/09/24 10:34:00;;;;;;;27.05;24.15;;;;;;;13.59;100.00;101174.34;5007925;28;20057;-78
2022/09/24 10:36:28;;;;;;;26.60;23.80;;;;;;;13.63;100.00;101170.50;5021220;28;20052;-78
2022/09/24 10:39:06;;;;;;;30.10;23.80;;;;;;;13.80;100.00;101172.59;5025228;28;20030;-79
2022/09/24 10:41:31;;;;;;;26.90;24.00;;;;;;;13.85;100.00;101174.00;5022596;28;20393;-79
2022/09/24 10:44:04;;;;;;;31.02;24.70;;;;;;;13.84;100.00;101178.47;5023772;28;20029;-79
2022/09/24 10:46:32;;;;;;;25.98;23.23;;;;;;;13.90;100.00;101182.41;5026220;28;20652;-78
2022/09/24 10:49:31;;;;;;;26.92;24.13;;;;;;;13.97;100.00;101186.22;5024825;28;20032;-79
2022/09/24 10:52:43;;;;;;;26.00;23.30;;;;;;;14.08;100.00;101186.19;5016819;28;20037;-78
2022/09/24 10:55:32;;;;;;;27.70;22.98;;;;;;;14.17;100.00;101195.16;5003497;28;20045;-79
2022/09/24 10:58:05;;;;;;;25.02;22.20;;;;;;;14.22;100.00;101196.44;5031730;28;20132;-79
2022/09/24 11:00:37;;;;;;;25.67;22.83;;;;;;;14.29;100.00;101194.97;5031922;28;20456;-80
2022/09/24 11:03:17;;;;;;;25.25;22.60;;;;;;;14.30;100.00;101190.50;5031227;28;20484;-80
2022/09/24 11:05:51;;;;;;;23.52;21.02;;;;;;;14.41;100.00;101188.66;5032001;28;20034;-80
2022/09/24 11:08:34;;;;;;;24.77;22.17;;;;;;;14.49;100.00;101189.84;5030974;28;20021;-80
2022/09/24 11:11:11;;;;;;;25.80;22.17;;;;;;;14.46;100.00;101190.94;5030797;28;20037;-80
2022/09/24 11:14:25;;;;;;;23.85;21.40;;;;;;;14.51;100.00;101195.84;5031710;28;20027;-79
2022/09/24 11:17:02;;;;;;;25.80;20.48;;;;;;;14.52;100.00;101194.88;5017982;28;20045;-80
2022/09/24 11:19:45;;;;;;;22.30;19.88;;;;;;;14.53;100.00;101193.91;5029908;28;20554;-80
2022/09/24 11:22:21;;;;;;;22.50;19.23;;;;;;;14.64;100.00;101199.13;5031005;28;20037;-80
2022/09/24 11:25:06;;;;;;;21.48;19.13;;;;;;;14.81;100.00;101200.31;5030978;28;20025;-80
2022/09/24 11:28:03;;;;;;;20.73;18.58;;;;;;;14.93;100.00;101200.13;5031654;28;20068;-79
2022/09/24 11:30:58;;;;;;;21.75;19.27;;;;;;;14.91;100.00;101202.06;5003167;28;20069;-79